createdAt,value
2023-08-14T00:00:19.318Z,98868.63
2023-08-14T00:03:42.846Z,98881.22
2023-08-14T00:06:46.978Z,98873.56
2023-08-14T00:09:50.467Z,98874.09
2023-08-14T00:12:55.148Z,98874.69
2023-08-14T00:15:58.731Z,98876.59
2023-08-14T00:19:02.383Z,98877.97
2023-08-14T00:22:06.092Z,98872.28
2023-08-14T00:25:11.477Z,98881.28
2023-08-14T00:28:16.304Z,98875.28
2023-08-14T00:31:19.729Z,98878.56
2023-08-14T00:34:23.294Z,98878.56
2023-08-14T00:37:41.391Z,98885.94
2023-08-14T00:40:45.134Z,98890.31
2023-08-14T00:43:49.969Z,98887.03
2023-08-14T00:46:53.971Z,98899.09
2023-08-14T00:49:57.690Z,98897.72
2023-08-14T00:53:04.791Z,98899.34
2023-08-14T00:56:08.177Z,98913.28
2023-08-14T00:59:13.370Z,98913.53
2023-08-14T01:02:18.337Z,98898.47
2023-08-14T01:05:22.456Z,98910.78
2023-08-14T01:08:26.405Z,98902.84
2023-08-14T01:11:39.372Z,98899.28
2023-08-14T01:14:46.161Z,98906.41
2023-08-14T01:17:54.566Z,98902.88
2023-08-14T01:21:27.119Z,98907.28
2023-08-14T01:24:54.173Z,98899.91
2023-08-14T01:28:00.009Z,98895.81
2023-08-14T01:31:03.621Z,98882.38
2023-08-14T01:34:07.425Z,98884.31
2023-08-14T01:37:20.462Z,98888.69
2023-08-14T01:40:30.429Z,98893.34
2023-08-14T01:43:40.520Z,98882.94
2023-08-14T01:46:46.220Z,98881.56
2023-08-14T01:49:51.113Z,98888.44
2023-08-14T01:52:55.074Z,98888.44
2023-08-14T01:55:59.456Z,98881.28
2023-08-14T01:59:04.553Z,98897.19
2023-08-14T02:02:08.226Z,98887.84
2023-08-14T02:05:11.830Z,98889.50
2023-08-14T02:08:15.917Z,98897.75
2023-08-14T02:11:19.668Z,98892.28
2023-08-14T02:14:26.010Z,98893.91
2023-08-14T02:17:29.568Z,98890.63
2023-08-14T02:20:33.235Z,98889.81
2023-08-14T02:23:37.238Z,98896.66
2023-08-14T02:26:40.846Z,98890.03
2023-08-14T02:29:45.826Z,98888.97
2023-08-14T02:32:49.801Z,98897.19
2023-08-14T02:35:55.143Z,98897.19
2023-08-14T02:39:00.540Z,98893.91
2023-08-14T02:42:04.141Z,98893.06
2023-08-14T02:45:10.394Z,98891.72
2023-08-14T02:48:14.863Z,98883.47
2023-08-14T02:51:18.483Z,98890.88
2023-08-14T02:54:22.099Z,98891.97
2023-08-14T02:57:26.098Z,98892.53
2023-08-14T03:00:31.059Z,98890.31
2023-08-14T03:03:34.761Z,98895.53
2023-08-14T03:06:38.469Z,98896.06
2023-08-14T03:09:42.071Z,98900.97
2023-08-14T03:12:45.567Z,98900.44
2023-08-14T03:15:50.575Z,98899.88
2023-08-14T03:18:54.046Z,98900.97
2023-08-14T03:21:57.669Z,98908.34
2023-08-14T03:25:01.096Z,98915.72
2023-08-14T03:28:05.711Z,98918.72
2023-08-14T03:31:10.685Z,98922.81
2023-08-14T03:34:14.701Z,98920.34
2023-08-14T03:37:19.597Z,98926.91
2023-08-14T03:40:24.098Z,98932.66
2023-08-14T03:43:27.502Z,98936.72
2023-08-14T03:46:32.548Z,98943.56
2023-08-14T03:49:35.968Z,98933.44
2023-08-14T03:52:39.652Z,98937.53
2023-08-14T03:55:43.040Z,98943.28
2023-08-14T03:58:46.799Z,98942.44
2023-08-14T04:01:51.826Z,98950.38
2023-08-14T04:04:56.455Z,98952.81
2023-08-14T04:07:59.884Z,98951.72
2023-08-14T04:11:05.899Z,98957.19
2023-08-14T04:14:09.730Z,98950.28
2023-08-14T04:17:14.822Z,98948.59
2023-08-14T04:20:18.190Z,98950.22
2023-08-14T04:23:21.890Z,98946.72
2023-08-14T04:26:25.445Z,98945.09
2023-08-14T04:29:29.085Z,98942.91
2023-08-14T04:32:34.117Z,98944.03
2023-08-14T04:35:39.329Z,98957.47
2023-08-14T04:38:42.878Z,98952.81
2023-08-14T04:41:46.468Z,98949.53
2023-08-14T04:44:50.244Z,98951.72
2023-08-14T04:47:57.356Z,98968.16
2023-08-14T04:51:01.994Z,98961.03
2023-08-14T04:54:06.471Z,98958.78
2023-08-14T04:57:09.961Z,98967.00
2023-08-14T05:00:15.943Z,98969.16
2023-08-14T05:03:22.085Z,98963.38
2023-08-14T05:06:28.553Z,98973.75
2023-08-14T05:09:32.173Z,98978.94
2023-08-14T05:12:35.693Z,98971.78
2023-08-14T05:15:40.370Z,98983.53
2023-08-14T05:18:45.366Z,98979.38
2023-08-14T05:21:48.943Z,98977.13
2023-08-14T05:24:52.738Z,98982.00
2023-08-14T05:27:56.075Z,98977.88
2023-08-14T05:30:59.715Z,98986.84
2023-08-14T05:34:04.917Z,98981.34
2023-08-14T05:37:10.655Z,98987.84
2023-08-14T05:40:15.870Z,98986.13
2023-08-14T05:43:19.483Z,98985.50
2023-08-14T05:46:25.241Z,98981.59
2023-08-14T05:49:30.232Z,98983.75
2023-08-14T05:52:33.684Z,98973.78
2023-08-14T05:55:38.171Z,98973.75
2023-08-14T06:01:47.009Z,98978.63
2023-08-14T06:04:51.742Z,98975.84
2023-08-14T06:07:56.403Z,98985.97
2023-08-14T06:10:59.817Z,98983.72
2023-08-14T06:14:03.324Z,98973.81
2023-08-14T06:17:07.338Z,98974.06
2023-08-14T06:20:13.945Z,98971.84
2023-08-14T06:23:17.328Z,98976.22
2023-08-14T06:26:20.904Z,98978.06
2023-08-14T06:29:24.420Z,98976.38
2023-08-14T06:32:28.215Z,98981.03
2023-08-14T06:35:33.081Z,98973.50
2023-08-14T06:38:36.747Z,98976.50
2023-08-14T06:41:40.195Z,98987.13
2023-08-14T06:44:44.142Z,98987.03
2023-08-14T06:47:47.693Z,98988.25
2023-08-14T06:50:53.550Z,99002.94
2023-08-14T06:53:57.214Z,99000.56
2023-08-14T06:57:02.734Z,99011.13
2023-08-14T07:00:13.225Z,99007.94
2023-08-14T07:03:17.350Z,99008.28
2023-08-14T07:06:22.528Z,99017.50
2023-08-14T07:09:26.134Z,99019.63
2023-08-14T07:12:29.983Z,99025.03
2023-08-14T07:15:33.710Z,99026.38
2023-08-14T07:18:37.324Z,99027.19
2023-08-14T07:21:42.250Z,99029.97
2023-08-14T07:24:46.090Z,99030.19
2023-08-14T07:27:49.692Z,99034.81
2023-08-14T07:30:53.321Z,99034.19
2023-08-14T07:33:57.213Z,99046.31
2023-08-14T07:37:02.112Z,99048.47
2023-08-14T07:40:07.663Z,99039.31
2023-08-14T07:43:11.063Z,99039.75
2023-08-14T07:46:14.673Z,99038.25
2023-08-14T07:49:18.052Z,99050.44
2023-08-14T07:52:23.014Z,99048.53
2023-08-14T07:55:26.615Z,99050.09
2023-08-14T07:58:30.256Z,99052.06
2023-08-14T08:01:34.001Z,99049.31
2023-08-14T08:04:40.486Z,99049.72
2023-08-14T08:07:45.713Z,99052.84
2023-08-14T08:10:49.342Z,99047.97
2023-08-14T08:13:57.774Z,99059.38
2023-08-14T08:17:02.001Z,99059.38
2023-08-14T08:20:07.470Z,99054.06
2023-08-14T08:23:12.580Z,99052.56
2023-08-14T08:26:16.513Z,99049.22
2023-08-14T08:29:20.255Z,99059.88
2023-08-14T08:32:24.812Z,99059.66
2023-08-14T08:35:28.423Z,99057.09
2023-08-14T08:38:33.342Z,99051.72
2023-08-14T08:41:41.034Z,99060.50
2023-08-14T08:44:47.347Z,99051.19
2023-08-14T08:47:51.224Z,99061.22
2023-08-14T08:50:55.786Z,99049.59
2023-08-14T08:54:01.350Z,99048.94
2023-08-14T08:57:07.217Z,99047.13
2023-08-14T09:00:12.737Z,99041.09
2023-08-14T09:03:16.236Z,99034.03
2023-08-14T09:06:20.275Z,99037.09
2023-08-14T09:09:25.146Z,99027.69
2023-08-14T09:12:28.631Z,99027.91
2023-08-14T09:15:33.166Z,99021.16
2023-08-14T09:18:37.172Z,99023.44
2023-08-14T09:21:44.126Z,99021.69
2023-08-14T09:24:50.378Z,99022.88
2023-08-14T09:27:55.620Z,99020.31
2023-08-14T09:31:07.293Z,99016.78
2023-08-14T09:34:18.100Z,99014.06
2023-08-14T09:37:22.486Z,99008.25
2023-08-14T09:40:27.221Z,99019.38
2023-08-14T09:43:33.417Z,99013.09
2023-08-14T09:46:36.893Z,99024.69
2023-08-14T09:49:41.760Z,99010.25
2023-08-14T09:52:45.863Z,99028.19
2023-08-14T09:55:50.872Z,99023.03
2023-08-14T09:58:56.273Z,99023.22
2023-08-14T10:02:01.831Z,99030.13
2023-08-14T10:05:10.506Z,99032.56
2023-08-14T10:08:15.340Z,99021.34
2023-08-14T10:11:21.926Z,99035.19
2023-08-14T10:14:27.067Z,99037.97
2023-08-14T10:17:33.630Z,99040.59
2023-08-14T10:20:38.755Z,99036.19
2023-08-14T10:23:43.335Z,99031.00
2023-08-14T10:26:48.758Z,99021.56
2023-08-14T10:29:53.348Z,99028.06
2023-08-14T10:32:57.350Z,99023.31
2023-08-14T10:36:03.645Z,99025.59
2023-08-14T10:39:11.265Z,99021.50
2023-08-14T10:42:17.999Z,99021.47
2023-08-14T10:45:24.711Z,99017.16
2023-08-14T10:48:28.176Z,99016.78
2023-08-14T10:51:33.642Z,99006.75
2023-08-14T10:54:39.572Z,99007.53
2023-08-14T10:57:44.582Z,99001.56
2023-08-14T11:00:48.379Z,99001.47
2023-08-14T11:03:59.901Z,99007.91
2023-08-14T11:07:10.112Z,98999.16
2023-08-14T11:10:17.006Z,99003.34
2023-08-14T11:13:22.280Z,98997.00
2023-08-14T11:16:27.022Z,98999.34
2023-08-14T11:19:30.776Z,99006.31
2023-08-14T11:22:34.289Z,98991.00
2023-08-14T11:25:39.908Z,98995.69
2023-08-14T11:31:50.090Z,98990.25
2023-08-14T11:34:53.674Z,98990.75
2023-08-14T11:37:57.765Z,98989.00
2023-08-14T11:41:01.914Z,98996.28
2023-08-14T11:44:07.070Z,98985.94
2023-08-14T11:47:11.068Z,98987.28
2023-08-14T11:50:15.111Z,98995.16
2023-08-14T11:53:18.782Z,98985.91
2023-08-14T11:56:22.225Z,98999.34
2023-08-14T11:59:27.142Z,98988.78
2023-08-14T12:02:31.280Z,98978.53
2023-08-14T12:05:35.241Z,98985.53
2023-08-14T12:08:40.831Z,98982.97
2023-08-14T12:11:47.065Z,98978.53
2023-08-14T12:14:53.013Z,98975.50
2023-08-14T12:17:56.618Z,98972.66
2023-08-14T12:21:00.065Z,98985.50
2023-08-14T12:24:03.978Z,98976.13
2023-08-14T12:27:15.816Z,98977.56
2023-08-14T12:30:21.005Z,98969.78
2023-08-14T12:33:24.474Z,98980.81
2023-08-14T12:36:28.099Z,98971.97
2023-08-14T12:39:31.563Z,98988.47
2023-08-14T12:42:35.114Z,98988.38
2023-08-14T12:45:39.983Z,98979.13
2023-08-14T12:48:43.509Z,98968.97
2023-08-14T12:51:47.038Z,98978.47
2023-08-14T12:55:04.716Z,98968.47
2023-08-14T13:01:23.623Z,98972.84
2023-08-14T13:04:29.262Z,98967.63
2023-08-14T13:07:34.227Z,98965.81
2023-08-14T13:10:37.679Z,98970.41
2023-08-14T13:13:41.938Z,98977.41
2023-08-14T13:16:46.760Z,98980.97
2023-08-14T13:19:50.325Z,98984.03
2023-08-14T13:22:53.943Z,98978.66
2023-08-14T13:25:57.551Z,98969.53
2023-08-14T13:29:01.258Z,98967.84
2023-08-14T13:32:07.077Z,98958.06
2023-08-14T13:35:10.691Z,98955.13
2023-08-14T13:38:14.809Z,98957.88
2023-08-14T13:41:18.321Z,98954.53
2023-08-14T13:44:21.976Z,98952.91
2023-08-14T13:47:31.071Z,98963.88
2023-08-14T13:50:38.586Z,98956.28
2023-08-14T13:53:42.029Z,98952.63
2023-08-14T13:56:45.553Z,98949.00
2023-08-14T13:59:49.379Z,98949.84
2023-08-14T14:02:54.373Z,98933.75
2023-08-14T14:05:58.247Z,98942.66
2023-08-14T14:09:01.781Z,98943.84
2023-08-14T14:12:05.677Z,98949.03
2023-08-14T14:15:09.707Z,98949.88
2023-08-14T14:18:16.548Z,98944.13
2023-08-14T14:21:20.241Z,98947.53
2023-08-14T14:24:23.652Z,98942.06
2023-08-14T14:27:27.145Z,98935.41
2023-08-14T14:30:30.750Z,98932.44
2023-08-14T14:33:35.666Z,98935.03
2023-08-14T14:36:39.367Z,98928.16
2023-08-14T14:39:42.876Z,98920.66
2023-08-14T14:42:46.352Z,98917.69
2023-08-14T14:45:49.966Z,98912.84
2023-08-14T14:48:55.249Z,98923.00
2023-08-14T14:52:02.209Z,98917.09
2023-08-14T14:55:06.392Z,98912.38
2023-08-14T14:58:10.139Z,98918.25
2023-08-14T15:01:15.223Z,98912.69
2023-08-14T15:04:20.312Z,98913.13
2023-08-14T15:07:23.858Z,98914.81
2023-08-14T15:10:27.763Z,98910.25
2023-08-14T15:13:31.545Z,98903.78
2023-08-14T15:16:35.357Z,98898.94
2023-08-14T15:19:40.950Z,98900.31
2023-08-14T15:22:45.233Z,98888.84
2023-08-14T15:25:48.740Z,98882.78
2023-08-14T15:28:52.242Z,98879.59
2023-08-14T15:31:55.810Z,98885.75
2023-08-14T15:35:00.781Z,98886.88
2023-08-14T15:38:05.210Z,98882.47
2023-08-14T15:41:10.355Z,98887.38
2023-08-14T15:44:13.860Z,98884.31
2023-08-14T15:47:17.838Z,98882.47
2023-08-14T15:50:22.826Z,98886.84
2023-08-14T15:53:26.529Z,98877.56
2023-08-14T15:56:29.894Z,98867.19
2023-08-14T15:59:33.375Z,98871.28
2023-08-14T16:02:36.740Z,98864.88
2023-08-14T16:05:41.880Z,98859.00
2023-08-14T16:08:45.402Z,98864.75
2023-08-14T16:11:48.858Z,98869.06
2023-08-14T16:14:52.462Z,98870.44
2023-08-14T16:17:56.396Z,98863.03
2023-08-14T16:21:01.538Z,98867.56
2023-08-14T16:24:05.734Z,98876.66
2023-08-14T16:27:10.667Z,98878.88
2023-08-14T16:30:14.275Z,98889.50
2023-08-14T16:33:17.743Z,98895.06
2023-08-14T16:36:22.697Z,98891.94
2023-08-14T16:39:26.319Z,98893.84
2023-08-14T16:42:29.811Z,98885.53
2023-08-14T16:45:33.137Z,98881.66
2023-08-14T16:48:36.737Z,98892.63
2023-08-14T16:51:41.610Z,98891.88
2023-08-14T16:54:45.092Z,98882.81
2023-08-14T16:57:48.481Z,98877.31
2023-08-14T17:00:52.198Z,98888.63
2023-08-14T17:03:55.707Z,98883.69
2023-08-14T17:07:00.755Z,98892.81
2023-08-14T17:10:04.317Z,98888.59
2023-08-14T17:13:07.914Z,98881.31
2023-08-14T17:16:11.469Z,98887.88
2023-08-14T17:19:15.422Z,98878.00
2023-08-14T17:22:20.268Z,98879.66
2023-08-14T17:25:23.818Z,98877.47
2023-08-14T17:28:28.582Z,98882.16
2023-08-14T17:31:32.527Z,98876.34
2023-08-14T17:34:35.884Z,98872.69
2023-08-14T17:37:40.748Z,98874.84
2023-08-14T17:40:44.503Z,98878.59
2023-08-14T17:43:47.976Z,98868.13
2023-08-14T17:46:51.390Z,98868.84
2023-08-14T17:49:55.270Z,98864.47
2023-08-14T17:53:00.377Z,98864.84
2023-08-14T17:56:03.912Z,98858.28
2023-08-14T17:59:07.302Z,98873.00
2023-08-14T18:02:10.811Z,98871.50
2023-08-14T18:05:14.275Z,98877.66
2023-08-14T18:08:19.364Z,98883.28
2023-08-14T18:11:23.206Z,98874.34
2023-08-14T18:14:26.831Z,98878.44
2023-08-14T18:17:30.369Z,98873.41
2023-08-14T18:20:34.273Z,98872.22
2023-08-14T18:23:39.033Z,98863.13
2023-08-14T18:26:43.085Z,98867.66
2023-08-14T18:29:48.155Z,98880.97
2023-08-14T18:32:51.708Z,98879.56
2023-08-14T18:35:55.123Z,98886.84
2023-08-14T18:38:59.942Z,98886.94
2023-08-14T18:42:05.886Z,98888.34
2023-08-14T18:45:10.613Z,98893.44
2023-08-14T18:48:14.295Z,98894.31
2023-08-14T18:51:17.883Z,98890.50
2023-08-14T18:54:23.275Z,98896.28
2023-08-14T18:57:28.040Z,98890.41
2023-08-14T19:00:31.411Z,98894.84
2023-08-14T19:03:35.065Z,98889.53
2023-08-14T19:06:38.523Z,98887.00
2023-08-14T19:09:44.359Z,98892.88
2023-08-14T19:12:47.616Z,98899.84
2023-08-14T19:15:51.580Z,98895.69
2023-08-14T19:18:55.270Z,98901.63
2023-08-14T19:21:58.850Z,98898.75
2023-08-14T19:25:04.282Z,98905.47
2023-08-14T19:28:20.998Z,98907.31
2023-08-14T19:31:27.495Z,98909.34
2023-08-14T19:34:31.053Z,98913.00
2023-08-14T19:37:34.553Z,98913.66
2023-08-14T19:40:39.895Z,98919.75
2023-08-14T19:43:43.523Z,98920.34
2023-08-14T19:46:47.122Z,98926.25
2023-08-14T19:49:52.058Z,98935.44
2023-08-14T19:52:56.390Z,98926.16
2023-08-14T19:56:01.378Z,98927.25
2023-08-14T19:59:06.331Z,98931.78
2023-08-14T20:02:11.787Z,98932.97
2023-08-14T20:05:15.847Z,98928.66
2023-08-14T20:08:20.484Z,98935.38
2023-08-14T20:11:25.366Z,98934.09
2023-08-14T20:14:28.992Z,98940.59
2023-08-14T20:17:32.488Z,98934.50
2023-08-14T20:20:39.998Z,98939.28
2023-08-14T20:23:43.964Z,98935.56
2023-08-14T20:26:49.205Z,98939.00
2023-08-14T20:29:52.794Z,98942.31
2023-08-14T20:32:56.232Z,98942.41
2023-08-14T20:35:59.825Z,98939.13
2023-08-14T20:39:03.695Z,98936.69
2023-08-14T20:42:08.637Z,98941.72
2023-08-14T20:45:13.751Z,98940.38
2023-08-14T20:48:17.251Z,98946.50
2023-08-14T20:51:21.037Z,98939.47
2023-08-14T20:54:24.684Z,98941.16
2023-08-14T20:57:29.470Z,98950.28
2023-08-14T21:00:33.080Z,98947.31
2023-08-14T21:03:36.636Z,98947.91
2023-08-14T21:06:40.276Z,98944.91
2023-08-14T21:09:43.783Z,98957.59
2023-08-14T21:12:48.740Z,98956.34
2023-08-14T21:15:56.817Z,98954.53
2023-08-14T21:19:00.430Z,98951.28
2023-08-14T21:22:04.128Z,98952.19
2023-08-14T21:25:08.762Z,98942.34
2023-08-14T21:28:13.543Z,98943.50
2023-08-14T21:31:17.053Z,98946.31
2023-08-14T21:34:20.787Z,98945.88
2023-08-14T21:37:24.321Z,98936.31
2023-08-14T21:40:27.986Z,98940.50
2023-08-14T21:43:33.002Z,98941.66
2023-08-14T21:46:36.513Z,98929.66
2023-08-14T21:49:40.092Z,98928.16
2023-08-14T21:52:43.571Z,98930.44
2023-08-14T21:55:47.817Z,98929.88
2023-08-14T21:58:52.768Z,98935.66
2023-08-14T22:01:56.900Z,98936.53
2023-08-14T22:05:00.413Z,98931.94
2023-08-14T22:08:04.057Z,98933.34
2023-08-14T22:11:07.421Z,98938.34
2023-08-14T22:14:12.306Z,98927.09
2023-08-14T22:17:15.776Z,98927.31
2023-08-14T22:20:19.690Z,98938.28
2023-08-14T22:23:23.228Z,98939.91
2023-08-14T22:26:26.937Z,98936.09
2023-08-14T22:29:31.643Z,98935.31
2023-08-14T22:32:35.262Z,98928.22
2023-08-14T22:35:38.882Z,98930.69
2023-08-14T22:38:42.456Z,98931.84
2023-08-14T22:41:45.978Z,98935.69
2023-08-14T22:44:50.851Z,98931.31
2023-08-14T22:47:54.464Z,98922.03
2023-08-14T22:50:57.891Z,98922.34
2023-08-14T22:54:01.927Z,98923.72
2023-08-14T22:57:05.443Z,98929.19
2023-08-14T23:00:11.986Z,98932.81
2023-08-14T23:03:15.411Z,98930.34
2023-08-14T23:06:18.687Z,98932.81
2023-08-14T23:09:22.321Z,98933.13
2023-08-14T23:12:27.548Z,98936.16
2023-08-14T23:15:32.593Z,98932.00
2023-08-14T23:18:35.902Z,98931.47
2023-08-14T23:21:39.343Z,98938.03
2023-08-14T23:24:42.884Z,98941.88
2023-08-14T23:27:47.871Z,98939.16
2023-08-14T23:30:52.619Z,98938.03
2023-08-14T23:33:56.135Z,98946.00
2023-08-14T23:36:59.623Z,98939.19
2023-08-14T23:40:03.999Z,98942.47
2023-08-14T23:43:07.340Z,98946.31
2023-08-14T23:46:12.214Z,98943.59
2023-08-14T23:49:15.673Z,98948.00
2023-08-14T23:52:19.318Z,98949.38
2023-08-14T23:55:22.721Z,98946.66
2023-08-14T23:58:26.121Z,98946.66
